sensor_id;sensor_type;location;lat;lon;timestamp;P1;durP1;ratioP1;P2;durP2;ratioP2
6292;SDS011;3179;54.350;10.102;2022-10-14T00:00:59;27.67;;;19.70;;
6292;SDS011;3179;54.350;10.102;2022-10-14T00:03:26;28.13;;;20.90;;
6292;SDS011;3179;54.350;10.102;2022-10-14T00:05:53;25.90;;;21.00;;
6292;SDS011;3179;54.350;10.102;2022-10-14T00:08:20;31.93;;;22.70;;
6292;SDS011;3179;54.350;10.102;2022-10-14T00:10:48;26.30;;;20.50;;
6292;SDS011;3179;54.350;10.102;2022-10-14T00:13:15;27.00;;;21.07;;
6292;SDS011;3179;54.350;10.102;2022-10-14T00:15:42;27.00;;;20.20;;
6292;SDS011;3179;54.350;10.102;2022-10-14T00:18:08;26.33;;;20.87;;
6292;SDS011;3179;54.350;10.102;2022-10-14T00:20:35;30.73;;;20.87;;
6292;SDS011;3179;54.350;10.102;2022-10-14T00:23:02;26.77;;;20.30;;
6292;SDS011;3179;54.350;10.102;2022-10-14T00:25:29;28.93;;;20.53;;
6292;SDS011;3179;54.350;10.102;2022-10-14T00:27:57;27.77;;;20.00;;
6292;SDS011;3179;54.350;10.102;2022-10-14T00:30:27;26.47;;;20.50;;
6292;SDS011;3179;54.350;10.102;2022-10-14T00:32:54;28.17;;;20.90;;
6292;SDS011;3179;54.350;10.102;2022-10-14T00:35:21;25.97;;;19.80;;
6292;SDS011;3179;54.350;10.102;2022-10-14T00:37:47;28.00;;;21.70;;
6292;SDS011;3179;54.350;10.102;2022-10-14T00:40:14;27.77;;;21.27;;
6292;SDS011;3179;54.350;10.102;2022-10-14T00:42:41;27.13;;;20.70;;
6292;SDS011;3179;54.350;10.102;2022-10-14T00:45:12;26.70;;;20.80;;
6292;SDS011;3179;54.350;10.102;2022-10-14T00:47:41;28.90;;;21.43;;
6292;SDS011;3179;54.350;10.102;2022-10-14T00:50:09;30.93;;;21.93;;
6292;SDS011;3179;54.350;10.102;2022-10-14T00:52:39;27.10;;;20.43;;
6292;SDS011;3179;54.350;10.102;2022-10-14T00:55:07;29.67;;;21.70;;
6292;SDS011;3179;54.350;10.102;2022-10-14T00:57:39;26.20;;;19.60;;
6292;SDS011;3179;54.350;10.102;2022-10-14T01:00:07;28.03;;;21.27;;
6292;SDS011;3179;54.350;10.102;2022-10-14T01:02:37;26.37;;;20.00;;
6292;SDS011;3179;54.350;10.102;2022-10-14T01:05:05;25.70;;;20.97;;
6292;SDS011;3179;54.350;10.102;2022-10-14T01:07:39;25.80;;;20.57;;
6292;SDS011;3179;54.350;10.102;2022-10-14T01:10:17;25.80;;;20.33;;
6292;SDS011;3179;54.350;10.102;2022-10-14T01:12:53;26.90;;;19.80;;
6292;SDS011;3179;54.350;10.102;2022-10-14T01:15:28;26.77;;;19.10;;
6292;SDS011;3179;54.350;10.102;2022-10-14T01:18:11;28.00;;;20.67;;
6292;SDS011;3179;54.350;10.102;2022-10-14T01:20:53;28.77;;;20.27;;
6292;SDS011;3179;54.350;10.102;2022-10-14T01:26:55;27.00;;;20.83;;
6292;SDS011;3179;54.350;10.102;2022-10-14T01:29:52;28.00;;;20.87;;
6292;SDS011;3179;54.350;10.102;2022-10-14T01:32:31;28.00;;;20.30;;
6292;SDS011;3179;54.350;10.102;2022-10-14T01:35:06;26.50;;;20.50;;
6292;SDS011;3179;54.350;10.102;2022-10-14T01:37:41;27.10;;;20.07;;
6292;SDS011;3179;54.350;10.102;2022-10-14T01:40:15;32.30;;;20.53;;
6292;SDS011;3179;54.350;10.102;2022-10-14T01:42:48;26.27;;;20.07;;
6292;SDS011;3179;54.350;10.102;2022-10-14T01:45:17;30.33;;;21.40;;
6292;SDS011;3179;54.350;10.102;2022-10-14T01:47:48;28.03;;;21.70;;
6292;SDS011;3179;54.350;10.102;2022-10-14T01:50:17;32.50;;;20.90;;
6292;SDS011;3179;54.350;10.102;2022-10-14T01:52:47;30.23;;;22.60;;
6292;SDS011;3179;54.350;10.102;2022-10-14T01:55:18;35.03;;;22.80;;
6292;SDS011;3179;54.350;10.102;2022-10-14T01:57:49;28.77;;;21.03;;
6292;SDS011;3179;54.350;10.102;2022-10-14T02:00:19;31.30;;;20.20;;
6292;SDS011;3179;54.350;10.102;2022-10-14T02:02:46;26.97;;;21.23;;
6292;SDS011;3179;54.350;10.102;2022-10-14T02:05:14;30.97;;;22.33;;
6292;SDS011;3179;54.350;10.102;2022-10-14T02:07:46;29.80;;;21.87;;
6292;SDS011;3179;54.350;10.102;2022-10-14T02:10:21;28.97;;;21.80;;
6292;SDS011;3179;54.350;10.102;2022-10-14T02:12:59;30.23;;;22.67;;
6292;SDS011;3179;54.350;10.102;2022-10-14T02:15:40;29.40;;;21.40;;
6292;SDS011;3179;54.350;10.102;2022-10-14T02:18:21;33.73;;;23.53;;
6292;SDS011;3179;54.350;10.102;2022-10-14T02:20:52;29.67;;;22.10;;
6292;SDS011;3179;54.350;10.102;2022-10-14T02:23:24;34.50;;;25.20;;
6292;SDS011;3179;54.350;10.102;2022-10-14T02:25:55;35.33;;;22.27;;
6292;SDS011;3179;54.350;10.102;2022-10-14T02:28:23;30.27;;;21.70;;
6292;SDS011;3179;54.350;10.102;2022-10-14T02:30:54;29.03;;;22.20;;
6292;SDS011;3179;54.350;10.102;2022-10-14T02:33:25;32.97;;;23.47;;
6292;SDS011;3179;54.350;10.102;2022-10-14T02:35:57;29.03;;;22.50;;
6292;SDS011;3179;54.350;10.102;2022-10-14T02:38:26;31.00;;;24.70;;
6292;SDS011;3179;54.350;10.102;2022-10-14T02:40:54;32.50;;;23.73;;
6292;SDS011;3179;54.350;10.102;2022-10-14T02:43:22;32.83;;;21.60;;
6292;SDS011;3179;54.350;10.102;2022-10-14T02:45:48;31.77;;;23.37;;
6292;SDS011;3179;54.350;10.102;2022-10-14T02:48:22;31.63;;;22.13;;
6292;SDS011;3179;54.350;10.102;2022-10-14T02:50:49;32.50;;;25.07;;
6292;SDS011;3179;54.350;10.102;2022-10-14T02:53:16;31.17;;;23.07;;
6292;SDS011;3179;54.350;10.102;2022-10-14T02:55:43;32.87;;;22.93;;
6292;SDS011;3179;54.350;10.102;2022-10-14T02:58:09;30.17;;;22.87;;
6292;SDS011;3179;54.350;10.102;2022-10-14T03:00:36;30.27;;;23.03;;
6292;SDS011;3179;54.350;10.102;2022-10-14T03:03:03;29.77;;;22.30;;
6292;SDS011;3179;54.350;10.102;2022-10-14T03:05:31;31.70;;;23.77;;
6292;SDS011;3179;54.350;10.102;2022-10-14T03:07:58;31.40;;;23.73;;
6292;SDS011;3179;54.350;10.102;2022-10-14T03:10:24;29.70;;;23.80;;
6292;SDS011;3179;54.350;10.102;2022-10-14T03:12:51;33.13;;;24.10;;
6292;SDS011;3179;54.350;10.102;2022-10-14T03:15:18;31.83;;;22.53;;
6292;SDS011;3179;54.350;10.102;2022-10-14T03:17:45;31.37;;;22.43;;
6292;SDS011;3179;54.350;10.102;2022-10-14T03:20:11;30.40;;;23.73;;
6292;SDS011;3179;54.350;10.102;2022-10-14T03:22:39;33.17;;;24.47;;
6292;SDS011;3179;54.350;10.102;2022-10-14T03:25:07;33.40;;;21.63;;
6292;SDS011;3179;54.350;10.102;2022-10-14T03:27:34;33.67;;;22.57;;
6292;SDS011;3179;54.350;10.102;2022-10-14T03:30:01;38.13;;;23.80;;
6292;SDS011;3179;54.350;10.102;2022-10-14T03:32:28;34.47;;;24.93;;
6292;SDS011;3179;54.350;10.102;2022-10-14T03:34:55;38.43;;;24.67;;
6292;SDS011;3179;54.350;10.102;2022-10-14T03:37:21;36.47;;;25.10;;
6292;SDS011;3179;54.350;10.102;2022-10-14T03:39:49;32.27;;;24.43;;
6292;SDS011;3179;54.350;10.102;2022-10-14T03:42:17;32.27;;;24.13;;
6292;SDS011;3179;54.350;10.102;2022-10-14T03:44:43;32.00;;;24.50;;
6292;SDS011;3179;54.350;10.102;2022-10-14T03:47:11;33.10;;;23.43;;
6292;SDS011;3179;54.350;10.102;2022-10-14T03:49:37;31.07;;;24.10;;
6292;SDS011;3179;54.350;10.102;2022-10-14T03:52:04;30.80;;;23.37;;
6292;SDS011;3179;54.350;10.102;2022-10-14T03:54:31;30.93;;;22.97;;
6292;SDS011;3179;54.350;10.102;2022-10-14T03:56:59;31.53;;;24.33;;
6292;SDS011;3179;54.350;10.102;2022-10-14T03:59:26;33.57;;;24.33;;
6292;SDS011;3179;54.350;10.102;2022-10-14T04:01:53;30.33;;;23.40;;
6292;SDS011;3179;54.350;10.102;2022-10-14T04:04:19;33.20;;;23.10;;
6292;SDS011;3179;54.350;10.102;2022-10-14T04:06:46;33.27;;;24.87;;
6292;SDS011;3179;54.350;10.102;2022-10-14T04:09:13;34.37;;;24.73;;
6292;SDS011;3179;54.350;10.102;2022-10-14T04:11:40;32.80;;;24.27;;
6292;SDS011;3179;54.350;10.102;2022-10-14T04:14:08;33.60;;;23.90;;
6292;SDS011;3179;54.350;10.102;2022-10-14T04:16:35;34.20;;;24.60;;
6292;SDS011;3179;54.350;10.102;2022-10-14T04:19:01;33.47;;;24.20;;
6292;SDS011;3179;54.350;10.102;2022-10-14T04:21:28;36.13;;;24.57;;
6292;SDS011;3179;54.350;10.102;2022-10-14T04:23:55;31.50;;;23.53;;
6292;SDS011;3179;54.350;10.102;2022-10-14T04:26:22;35.73;;;25.77;;
6292;SDS011;3179;54.350;10.102;2022-10-14T04:28:48;37.27;;;25.90;;
6292;SDS011;3179;54.350;10.102;2022-10-14T04:31:16;40.83;;;25.20;;
6292;SDS011;3179;54.350;10.102;2022-10-14T04:33:43;35.67;;;24.90;;
6292;SDS011;3179;54.350;10.102;2022-10-14T04:36:10;35.53;;;25.67;;
6292;SDS011;3179;54.350;10.102;2022-10-14T04:38:36;32.27;;;24.33;;
6292;SDS011;3179;54.350;10.102;2022-10-14T04:41:03;33.30;;;23.60;;
6292;SDS011;3179;54.350;10.102;2022-10-14T04:43:30;37.07;;;25.30;;
6292;SDS011;3179;54.350;10.102;2022-10-14T04:45:57;33.87;;;24.20;;
6292;SDS011;3179;54.350;10.102;2022-10-14T04:48:25;35.40;;;24.70;;
6292;SDS011;3179;54.350;10.102;2022-10-14T04:50:52;34.23;;;24.80;;
6292;SDS011;3179;54.350;10.102;2022-10-14T04:53:19;34.30;;;25.07;;
6292;SDS011;3179;54.350;10.102;2022-10-14T04:55:46;36.93;;;25.60;;
6292;SDS011;3179;54.350;10.102;2022-10-14T04:58:13;34.60;;;23.40;;
6292;SDS011;3179;54.350;10.102;2022-10-14T05:00:41;36.20;;;24.47;;
6292;SDS011;3179;54.350;10.102;2022-10-14T05:03:08;36.80;;;25.90;;
6292;SDS011;3179;54.350;10.102;2022-10-14T05:05:36;34.67;;;25.70;;
6292;SDS011;3179;54.350;10.102;2022-10-14T05:08:03;40.07;;;26.00;;
6292;SDS011;3179;54.350;10.102;2022-10-14T05:10:30;38.67;;;26.37;;
6292;SDS011;3179;54.350;10.102;2022-10-14T05:12:58;42.00;;;25.53;;
6292;SDS011;3179;54.350;10.102;2022-10-14T05:15:24;37.43;;;24.93;;
6292;SDS011;3179;54.350;10.102;2022-10-14T05:17:51;47.23;;;28.57;;
6292;SDS011;3179;54.350;10.102;2022-10-14T05:20:18;36.53;;;25.13;;
6292;SDS011;3179;54.350;10.102;2022-10-14T05:22:46;34.67;;;25.43;;
6292;SDS011;3179;54.350;10.102;2022-10-14T05:25:13;36.03;;;24.33;;
6292;SDS011;3179;54.350;10.102;2022-10-14T05:27:40;37.70;;;26.63;;
6292;SDS011;3179;54.350;10.102;2022-10-14T05:30:07;39.37;;;26.40;;
6292;SDS011;3179;54.350;10.102;2022-10-14T05:32:35;46.23;;;27.27;;
6292;SDS011;3179;54.350;10.102;2022-10-14T05:35:02;37.17;;;24.20;;
6292;SDS011;3179;54.350;10.102;2022-10-14T05:37:29;41.20;;;26.83;;
6292;SDS011;3179;54.350;10.102;2022-10-14T05:39:57;37.33;;;26.03;;
6292;SDS011;3179;54.350;10.102;2022-10-14T05:42:24;39.43;;;26.83;;
6292;SDS011;3179;54.350;10.102;2022-10-14T05:44:50;41.90;;;28.07;;
6292;SDS011;3179;54.350;10.102;2022-10-14T05:47:17;43.50;;;25.53;;
6292;SDS011;3179;54.350;10.102;2022-10-14T05:49:44;41.33;;;27.27;;
6292;SDS011;3179;54.350;10.102;2022-10-14T05:52:11;39.87;;;26.27;;
6292;SDS011;3179;54.350;10.102;2022-10-14T05:54:37;40.53;;;25.80;;
6292;SDS011;3179;54.350;10.102;2022-10-14T05:57:06;35.43;;;23.70;;
6292;SDS011;3179;54.350;10.102;2022-10-14T05:59:32;43.73;;;25.70;;
6292;SDS011;3179;54.350;10.102;2022-10-14T06:01:59;41.27;;;26.03;;
6292;SDS011;3179;54.350;10.102;2022-10-14T06:04:26;37.70;;;25.30;;
6292;SDS011;3179;54.350;10.102;2022-10-14T06:06:53;35.33;;;23.77;;
6292;SDS011;3179;54.350;10.102;2022-10-14T06:09:20;43.93;;;27.07;;
6292;SDS011;3179;54.350;10.102;2022-10-14T06:11:47;37.40;;;24.47;;
6292;SDS011;3179;54.350;10.102;2022-10-14T06:14:16;39.60;;;26.50;;
6292;SDS011;3179;54.350;10.102;2022-10-14T06:16:43;35.77;;;23.90;;
6292;SDS011;3179;54.350;10.102;2022-10-14T06:19:09;41.20;;;25.50;;
6292;SDS011;3179;54.350;10.102;2022-10-14T06:21:36;39.87;;;25.50;;
6292;SDS011;3179;54.350;10.102;2022-10-14T06:24:03;37.87;;;24.07;;
6292;SDS011;3179;54.350;10.102;2022-10-14T06:26:30;37.93;;;24.00;;
6292;SDS011;3179;54.350;10.102;2022-10-14T06:28:57;36.77;;;25.53;;
6292;SDS011;3179;54.350;10.102;2022-10-14T06:31:25;38.07;;;24.67;;
6292;SDS011;3179;54.350;10.102;2022-10-14T06:33:52;37.00;;;25.63;;
6292;SDS011;3179;54.350;10.102;2022-10-14T06:36:18;38.53;;;24.03;;
6292;SDS011;3179;54.350;10.102;2022-10-14T06:38:45;44.50;;;26.40;;
6292;SDS011;3179;54.350;10.102;2022-10-14T06:41:12;41.40;;;26.00;;
6292;SDS011;3179;54.350;10.102;2022-10-14T06:43:39;38.47;;;24.17;;
6292;SDS011;3179;54.350;10.102;2022-10-14T06:46:05;37.00;;;24.53;;
6292;SDS011;3179;54.350;10.102;2022-10-14T06:48:33;39.07;;;24.73;;
6292;SDS011;3179;54.350;10.102;2022-10-14T06:51:00;38.57;;;24.13;;
6292;SDS011;3179;54.350;10.102;2022-10-14T06:53:27;39.77;;;25.63;;
6292;SDS011;3179;54.350;10.102;2022-10-14T06:55:57;39.13;;;24.87;;
6292;SDS011;3179;54.350;10.102;2022-10-14T06:58:25;38.67;;;24.90;;
6292;SDS011;3179;54.350;10.102;2022-10-14T07:00:52;35.40;;;23.70;;
6292;SDS011;3179;54.350;10.102;2022-10-14T07:03:19;34.70;;;24.20;;
6292;SDS011;3179;54.350;10.102;2022-10-14T07:05:47;37.30;;;24.87;;
6292;SDS011;3179;54.350;10.102;2022-10-14T07:08:14;38.80;;;25.50;;
6292;SDS011;3179;54.350;10.102;2022-10-14T07:10:41;35.70;;;22.33;;
6292;SDS011;3179;54.350;10.102;2022-10-14T07:13:08;37.03;;;24.93;;
6292;SDS011;3179;54.350;10.102;2022-10-14T07:15:36;35.13;;;23.73;;
6292;SDS011;3179;54.350;10.102;2022-10-14T07:18:03;36.23;;;25.50;;
6292;SDS011;3179;54.350;10.102;2022-10-14T07:20:30;34.30;;;23.97;;
6292;SDS011;3179;54.350;10.102;2022-10-14T07:22:59;32.17;;;22.37;;
6292;SDS011;3179;54.350;10.102;2022-10-14T07:25:26;35.80;;;23.80;;
6292;SDS011;3179;54.350;10.102;2022-10-14T07:27:52;38.73;;;25.00;;
6292;SDS011;3179;54.350;10.102;2022-10-14T07:30:19;35.90;;;24.93;;
6292;SDS011;3179;54.350;10.102;2022-10-14T07:32:46;37.70;;;24.70;;
6292;SDS011;3179;54.350;10.102;2022-10-14T07:35:13;34.53;;;25.10;;
6292;SDS011;3179;54.350;10.102;2022-10-14T07:37:40;34.30;;;25.10;;
6292;SDS011;3179;54.350;10.102;2022-10-14T07:40:08;36.10;;;24.30;;
6292;SDS011;3179;54.350;10.102;2022-10-14T07:42:36;33.87;;;23.20;;
6292;SDS011;3179;54.350;10.102;2022-10-14T07:45:03;34.53;;;22.97;;
6292;SDS011;3179;54.350;10.102;2022-10-14T07:47:31;30.60;;;21.97;;
6292;SDS011;3179;54.350;10.102;2022-10-14T07:49:58;39.23;;;24.67;;
6292;SDS011;3179;54.350;10.102;2022-10-14T07:52:25;33.77;;;23.67;;
6292;SDS011;3179;54.350;10.102;2022-10-14T07:54:52;30.97;;;23.40;;
6292;SDS011;3179;54.350;10.102;2022-10-14T07:57:20;33.90;;;24.00;;
6292;SDS011;3179;54.350;10.102;2022-10-14T07:59:47;35.23;;;22.63;;
6292;SDS011;3179;54.350;10.102;2022-10-14T08:02:16;33.03;;;23.40;;
6292;SDS011;3179;54.350;10.102;2022-10-14T08:04:43;31.20;;;23.50;;
6292;SDS011;3179;54.350;10.102;2022-10-14T08:07:10;33.60;;;23.23;;
6292;SDS011;3179;54.350;10.102;2022-10-14T08:09:38;38.57;;;25.00;;
6292;SDS011;3179;54.350;10.102;2022-10-14T08:12:05;31.60;;;23.17;;
6292;SDS011;3179;54.350;10.102;2022-10-14T08:14:33;33.07;;;24.97;;
6292;SDS011;3179;54.350;10.102;2022-10-14T08:17:00;36.10;;;23.50;;
6292;SDS011;3179;54.350;10.102;2022-10-14T08:19:27;35.93;;;24.97;;
6292;SDS011;3179;54.350;10.102;2022-10-14T08:21:53;28.87;;;21.70;;
6292;SDS011;3179;54.350;10.102;2022-10-14T08:24:20;30.97;;;21.27;;
6292;SDS011;3179;54.350;10.102;2022-10-14T08:26:48;31.27;;;23.13;;
6292;SDS011;3179;54.350;10.102;2022-10-14T08:29:16;34.87;;;22.90;;
6292;SDS011;3179;54.350;10.102;2022-10-14T08:31:44;36.47;;;24.00;;
6292;SDS011;3179;54.350;10.102;2022-10-14T08:34:11;32.30;;;23.57;;
6292;SDS011;3179;54.350;10.102;2022-10-14T08:36:38;32.40;;;22.70;;
6292;SDS011;3179;54.350;10.102;2022-10-14T08:39:05;32.10;;;24.33;;
6292;SDS011;3179;54.350;10.102;2022-10-14T08:41:39;37.83;;;23.17;;
6292;SDS011;3179;54.350;10.102;2022-10-14T08:44:15;33.20;;;23.40;;
6292;SDS011;3179;54.350;10.102;2022-10-14T08:46:49;34.60;;;23.33;;
6292;SDS011;3179;54.350;10.102;2022-10-14T08:49:20;31.50;;;22.13;;
6292;SDS011;3179;54.350;10.102;2022-10-14T08:51:52;30.50;;;20.50;;
6292;SDS011;3179;54.350;10.102;2022-10-14T08:54:26;31.77;;;22.50;;
6292;SDS011;3179;54.350;10.102;2022-10-14T08:56:57;30.77;;;22.30;;
6292;SDS011;3179;54.350;10.102;2022-10-14T08:59:25;30.13;;;21.77;;
6292;SDS011;3179;54.350;10.102;2022-10-14T09:01:55;31.87;;;23.07;;
6292;SDS011;3179;54.350;10.102;2022-10-14T09:04:25;30.90;;;22.10;;
6292;SDS011;3179;54.350;10.102;2022-10-14T09:06:52;29.70;;;21.57;;
6292;SDS011;3179;54.350;10.102;2022-10-14T09:09:21;31.07;;;21.70;;
6292;SDS011;3179;54.350;10.102;2022-10-14T09:11:52;30.77;;;20.30;;
6292;SDS011;3179;54.350;10.102;2022-10-14T09:14:24;31.17;;;21.53;;
6292;SDS011;3179;54.350;10.102;2022-10-14T09:16:56;35.57;;;21.70;;
6292;SDS011;3179;54.350;10.102;2022-10-14T09:19:30;26.47;;;18.47;;
6292;SDS011;3179;54.350;10.102;2022-10-14T09:21:59;28.80;;;18.90;;
6292;SDS011;3179;54.350;10.102;2022-10-14T09:24:27;29.23;;;19.43;;
6292;SDS011;3179;54.350;10.102;2022-10-14T09:26:58;28.90;;;18.30;;
6292;SDS011;3179;54.350;10.102;2022-10-14T09:29:30;27.10;;;19.90;;
6292;SDS011;3179;54.350;10.102;2022-10-14T09:32:03;28.20;;;18.07;;
6292;SDS011;3179;54.350;10.102;2022-10-14T09:34:33;27.90;;;18.47;;
6292;SDS011;3179;54.350;10.102;2022-10-14T09:37:09;23.47;;;16.40;;
6292;SDS011;3179;54.350;10.102;2022-10-14T09:39:46;25.87;;;17.20;;
6292;SDS011;3179;54.350;10.102;2022-10-14T09:42:17;27.43;;;18.77;;
6292;SDS011;3179;54.350;10.102;2022-10-14T09:44:58;28.43;;;19.13;;
6292;SDS011;3179;54.350;10.102;2022-10-14T09:47:35;27.10;;;18.17;;
6292;SDS011;3179;54.350;10.102;2022-10-14T09:50:12;28.07;;;19.10;;
6292;SDS011;3179;54.350;10.102;2022-10-14T09:52:47;23.87;;;16.40;;
6292;SDS011;3179;54.350;10.102;2022-10-14T09:55:18;25.53;;;17.43;;
6292;SDS011;3179;54.350;10.102;2022-10-14T09:57:53;26.47;;;16.63;;
6292;SDS011;3179;54.350;10.102;2022-10-14T10:00:25;22.57;;;16.30;;
6292;SDS011;3179;54.350;10.102;2022-10-14T10:02:55;24.30;;;15.57;;
6292;SDS011;3179;54.350;10.102;2022-10-14T10:05:23;27.53;;;17.17;;
6292;SDS011;3179;54.350;10.102;2022-10-14T10:10:52;23.23;;;15.30;;
6292;SDS011;3179;54.350;10.102;2022-10-14T10:13:26;24.03;;;16.00;;
6292;SDS011;3179;54.350;10.102;2022-10-14T10:15:58;23.87;;;16.37;;
6292;SDS011;3179;54.350;10.102;2022-10-14T10:18:29;25.40;;;16.10;;
6292;SDS011;3179;54.350;10.102;2022-10-14T10:20:59;28.27;;;18.80;;
6292;SDS011;3179;54.350;10.102;2022-10-14T10:23:30;24.63;;;16.17;;
6292;SDS011;3179;54.350;10.102;2022-10-14T10:26:05;29.23;;;16.90;;
6292;SDS011;3179;54.350;10.102;2022-10-14T10:28:43;27.07;;;17.30;;
6292;SDS011;3179;54.350;10.102;2022-10-14T10:31:16;29.07;;;17.73;;
6292;SDS011;3179;54.350;10.102;2022-10-14T10:33:51;24.93;;;18.27;;
6292;SDS011;3179;54.350;10.102;2022-10-14T10:36:27;25.90;;;17.70;;
6292;SDS011;3179;54.350;10.102;2022-10-14T10:38:57;34.20;;;18.57;;
6292;SDS011;3179;54.350;10.102;2022-10-14T10:41:30;24.27;;;17.07;;
6292;SDS011;3179;54.350;10.102;2022-10-14T10:44:19;24.50;;;18.00;;
6292;SDS011;3179;54.350;10.102;2022-10-14T10:47:10;28.97;;;20.20;;
6292;SDS011;3179;54.350;10.102;2022-10-14T10:50:01;31.63;;;19.20;;
6292;SDS011;3179;54.350;10.102;2022-10-14T10:52:44;27.60;;;18.80;;
6292;SDS011;3179;54.350;10.102;2022-10-14T10:55:22;30.50;;;20.60;;
6292;SDS011;3179;54.350;10.102;2022-10-14T10:57:57;29.80;;;20.60;;
6292;SDS011;3179;54.350;10.102;2022-10-14T11:00:30;34.00;;;21.23;;
6292;SDS011;3179;54.350;10.102;2022-10-14T11:03:09;37.27;;;22.90;;
6292;SDS011;3179;54.350;10.102;2022-10-14T11:05:51;30.33;;;21.13;;
6292;SDS011;3179;54.350;10.102;2022-10-14T11:08:31;33.20;;;21.87;;
6292;SDS011;3179;54.350;10.102;2022-10-14T11:11:23;28.83;;;21.20;;
6292;SDS011;3179;54.350;10.102;2022-10-14T11:17:13;40.00;;;22.17;;
6292;SDS011;3179;54.350;10.102;2022-10-14T11:19:49;34.07;;;23.20;;
6292;SDS011;3179;54.350;10.102;2022-10-14T11:22:26;29.90;;;22.13;;
6292;SDS011;3179;54.350;10.102;2022-10-14T11:25:05;29.57;;;20.20;;
6292;SDS011;3179;54.350;10.102;2022-10-14T11:27:43;36.10;;;23.90;;
6292;SDS011;3179;54.350;10.102;2022-10-14T11:30:14;31.93;;;22.30;;
6292;SDS011;3179;54.350;10.102;2022-10-14T11:32:49;33.47;;;23.63;;
6292;SDS011;3179;54.350;10.102;2022-10-14T11:35:36;29.83;;;21.97;;
6292;SDS011;3179;54.350;10.102;2022-10-14T11:38:21;37.07;;;25.30;;
6292;SDS011;3179;54.350;10.102;2022-10-14T11:40:59;31.73;;;22.77;;
6292;SDS011;3179;54.350;10.102;2022-10-14T11:43:31;36.40;;;24.87;;
6292;SDS011;3179;54.350;10.102;2022-10-14T11:46:04;35.13;;;23.60;;
6292;SDS011;3179;54.350;10.102;2022-10-14T11:48:34;34.70;;;24.93;;
6292;SDS011;3179;54.350;10.102;2022-10-14T11:51:10;36.43;;;25.07;;
6292;SDS011;3179;54.350;10.102;2022-10-14T11:53:46;32.33;;;24.60;;
6292;SDS011;3179;54.350;10.102;2022-10-14T11:56:23;38.20;;;25.33;;
6292;SDS011;3179;54.350;10.102;2022-10-14T11:58:57;35.70;;;24.70;;
6292;SDS011;3179;54.350;10.102;2022-10-14T12:01:28;38.33;;;25.20;;
6292;SDS011;3179;54.350;10.102;2022-10-14T12:04:00;35.40;;;25.40;;
6292;SDS011;3179;54.350;10.102;2022-10-14T12:06:31;34.70;;;24.97;;
6292;SDS011;3179;54.350;10.102;2022-10-14T12:09:03;32.87;;;24.77;;
6292;SDS011;3179;54.350;10.102;2022-10-14T12:11:38;31.40;;;23.80;;
6292;SDS011;3179;54.350;10.102;2022-10-14T12:14:09;35.17;;;24.37;;
6292;SDS011;3179;54.350;10.102;2022-10-14T12:16:40;33.17;;;23.10;;
6292;SDS011;3179;54.350;10.102;2022-10-14T12:19:08;36.80;;;26.37;;
6292;SDS011;3179;54.350;10.102;2022-10-14T12:21:39;34.73;;;25.43;;
6292;SDS011;3179;54.350;10.102;2022-10-14T12:24:13;38.93;;;25.60;;
6292;SDS011;3179;54.350;10.102;2022-10-14T12:26:50;34.40;;;24.00;;
6292;SDS011;3179;54.350;10.102;2022-10-14T12:29:19;33.30;;;24.47;;
6292;SDS011;3179;54.350;10.102;2022-10-14T12:31:49;35.43;;;24.97;;
6292;SDS011;3179;54.350;10.102;2022-10-14T12:34:31;34.83;;;23.93;;
6292;SDS011;3179;54.350;10.102;2022-10-14T12:37:00;34.87;;;24.10;;
6292;SDS011;3179;54.350;10.102;2022-10-14T12:40:30;34.93;;;24.80;;
6292;SDS011;3179;54.350;10.102;2022-10-14T12:43:01;40.13;;;24.90;;
6292;SDS011;3179;54.350;10.102;2022-10-14T12:45:45;32.23;;;23.77;;
6292;SDS011;3179;54.350;10.102;2022-10-14T12:48:16;35.40;;;24.40;;
6292;SDS011;3179;54.350;10.102;2022-10-14T12:50:45;34.27;;;23.57;;
6292;SDS011;3179;54.350;10.102;2022-10-14T12:53:15;34.63;;;23.97;;
6292;SDS011;3179;54.350;10.102;2022-10-14T12:55:51;41.77;;;25.30;;
6292;SDS011;3179;54.350;10.102;2022-10-14T12:58:23;33.27;;;23.33;;
6292;SDS011;3179;54.350;10.102;2022-10-14T13:00:54;35.13;;;25.40;;
6292;SDS011;3179;54.350;10.102;2022-10-14T13:03:24;34.80;;;22.87;;
6292;SDS011;3179;54.350;10.102;2022-10-14T13:05:53;33.77;;;22.90;;
6292;SDS011;3179;54.350;10.102;2022-10-14T13:24:19;29.03;;;20.70;;
6292;SDS011;3179;54.350;10.102;2022-10-14T13:26:58;28.43;;;20.90;;
6292;SDS011;3179;54.350;10.102;2022-10-14T13:29:35;29.70;;;20.20;;
6292;SDS011;3179;54.350;10.102;2022-10-14T13:32:25;26.53;;;20.63;;
6292;SDS011;3179;54.350;10.102;2022-10-14T13:35:01;30.77;;;21.70;;
6292;SDS011;3179;54.350;10.102;2022-10-14T13:37:36;29.47;;;20.07;;
6292;SDS011;3179;54.350;10.102;2022-10-14T13:40:11;27.90;;;20.40;;
6292;SDS011;3179;54.350;10.102;2022-10-14T13:42:46;28.10;;;20.57;;
6292;SDS011;3179;54.350;10.102;2022-10-14T13:45:16;27.67;;;20.30;;
6292;SDS011;3179;54.350;10.102;2022-10-14T13:47:45;31.77;;;22.10;;
6292;SDS011;3179;54.350;10.102;2022-10-14T13:50:14;31.53;;;21.60;;
6292;SDS011;3179;54.350;10.102;2022-10-14T13:52:45;33.70;;;21.27;;
6292;SDS011;3179;54.350;10.102;2022-10-14T13:55:19;30.57;;;21.83;;
6292;SDS011;3179;54.350;10.102;2022-10-14T14:00:36;31.13;;;21.30;;
6292;SDS011;3179;54.350;10.102;2022-10-14T14:03:09;33.77;;;21.97;;
6292;SDS011;3179;54.350;10.102;2022-10-14T14:05:42;31.00;;;22.00;;
6292;SDS011;3179;54.350;10.102;2022-10-14T14:08:11;30.20;;;21.13;;
6292;SDS011;3179;54.350;10.102;2022-10-14T14:10:50;31.70;;;22.50;;
6292;SDS011;3179;54.350;10.102;2022-10-14T14:13:20;32.87;;;22.97;;
6292;SDS011;3179;54.350;10.102;2022-10-14T14:15:47;34.00;;;22.80;;
6292;SDS011;3179;54.350;10.102;2022-10-14T14:18:26;32.43;;;22.70;;
6292;SDS011;3179;54.350;10.102;2022-10-14T14:20:54;34.20;;;23.87;;
6292;SDS011;3179;54.350;10.102;2022-10-14T14:23:23;31.83;;;20.93;;
6292;SDS011;3179;54.350;10.102;2022-10-14T14:25:51;37.97;;;22.23;;
6292;SDS011;3179;54.350;10.102;2022-10-14T14:28:19;35.70;;;22.60;;
6292;SDS011;3179;54.350;10.102;2022-10-14T14:30:47;26.40;;;20.00;;
6292;SDS011;3179;54.350;10.102;2022-10-14T14:33:17;30.13;;;20.70;;
6292;SDS011;3179;54.350;10.102;2022-10-14T14:35:51;29.57;;;20.77;;
6292;SDS011;3179;54.350;10.102;2022-10-14T14:38:23;27.53;;;18.70;;
6292;SDS011;3179;54.350;10.102;2022-10-14T14:41:00;29.73;;;20.50;;
6292;SDS011;3179;54.350;10.102;2022-10-14T14:43:28;25.23;;;18.20;;
6292;SDS011;3179;54.350;10.102;2022-10-14T14:45:56;27.13;;;19.57;;
6292;SDS011;3179;54.350;10.102;2022-10-14T14:48:25;29.00;;;19.63;;
6292;SDS011;3179;54.350;10.102;2022-10-14T14:50:53;29.90;;;21.47;;
6292;SDS011;3179;54.350;10.102;2022-10-14T14:53:21;29.10;;;20.20;;
6292;SDS011;3179;54.350;10.102;2022-10-14T14:55:57;30.97;;;22.27;;
6292;SDS011;3179;54.350;10.102;2022-10-14T14:58:28;28.97;;;20.73;;
6292;SDS011;3179;54.350;10.102;2022-10-14T15:00:59;31.10;;;21.70;;
6292;SDS011;3179;54.350;10.102;2022-10-14T15:03:26;27.07;;;20.10;;
6292;SDS011;3179;54.350;10.102;2022-10-14T15:05:56;28.07;;;19.33;;
6292;SDS011;3179;54.350;10.102;2022-10-14T15:08:25;29.83;;;20.00;;
6292;SDS011;3179;54.350;10.102;2022-10-14T15:10:54;30.40;;;20.33;;
6292;SDS011;3179;54.350;10.102;2022-10-14T15:16:13;33.60;;;21.60;;
6292;SDS011;3179;54.350;10.102;2022-10-14T15:27:51;30.23;;;20.00;;
6292;SDS011;3179;54.350;10.102;2022-10-14T15:30:24;32.57;;;21.43;;
6292;SDS011;3179;54.350;10.102;2022-10-14T15:32:56;29.20;;;19.73;;